Latest Weather Observations for ACT PCS2

IDN60801

Issued at 4:52 pm EDT Monday 14 October 2019 (issued every 10 minutes, with the page automatically refreshed every 10 minutes)

About weather observations | Map of weather stations | Latest weather observations for NSW | Other Formats
Station Details ID: 250105 Name: ACT PCS2 Lat: -35.33 Lon: 149.05 Height: 1086.0 m
Data from the previous 72 hours. | See also: Recent months for locations in New South Wales
Date/Time
EDT
Temp
°C
App
Temp
°C
Dew
Point
°C
Rel
Hum
%
Delta-T
°C
Wind Press
QNH
hPa
Press
MSL
hPa
Rain since
9am
mm
Dir  Spd
km/h
Gust
km/h
Spd
kts
Gust
kts
14/04:40pm 23.0 - 5.5 32 9.3 - - - - - - - 0.0
14/04:30pm 23.6 - 6.1 32 9.4 - - - - - - - 0.0
14/04:20pm 23.8 - 5.5 30 9.8 - - - - - - - 0.0
14/04:10pm 23.7 - 5.8 31 9.6 - - - - - - - 0.0
14/04:00pm 23.7 - 4.7 29 10.0 - - - - - - - 0.0
14/03:50pm 22.7 - 5.7 33 9.0 - - - - - - - 0.0
14/03:40pm 22.9 - 4.8 30 9.5 - - - - - - - 0.0
14/03:30pm 22.2 - 5.2 33 8.9 - - - - - - - 0.0
14/03:20pm 21.7 - 4.9 33 8.7 - - - - - - - 0.0
14/03:10pm 22.0 - 4.8 32 9.0 - - - - - - - 0.0
14/03:00pm 21.9 - 4.9 33 8.9 - - - - - - - 0.0
14/02:50pm 22.1 - 4.7 32 9.0 - - - - - - - 0.0
14/02:40pm 22.7 - 5.4 32 9.1 - - - - - - - 0.0
14/02:30pm 22.0 - 5.8 35 8.6 - - - - - - - 0.0
14/02:20pm 20.6 - 5.6 37 7.9 - - - - - - - 0.0
14/02:10pm 19.9 - 5.5 39 7.5 - - - - - - - 0.0
14/02:00pm 20.0 - 5.7 39 7.5 - - - - - - - 0.0
14/01:50pm 19.8 - 6.4 41 7.1 - - - - - - - 0.0
14/01:40pm 19.8 - 5.7 39 7.4 - - - - - - - 0.0
14/01:30pm 20.2 - 6.6 41 7.2 - - - - - - - 0.0
14/01:20pm 20.6 - 6.3 39 7.6 - - - - - - - 0.0
14/01:10pm 20.4 - 5.2 37 7.9 - - - - - - - 0.0
14/01:00pm 20.1 - 6.5 41 7.2 - - - - - - - 0.0
14/12:50pm 19.8 - 6.1 40 7.2 - - - - - - - 0.0
14/12:40pm 19.4 - 5.0 38 7.4 - - - - - - - 0.0
14/12:30pm 19.3 - 5.5 40 7.2 - - - - - - - 0.0
14/12:20pm 19.4 - 6.1 42 7.0 - - - - - - - 0.0
14/12:10pm 19.4 - 4.9 38 7.4 - - - - - - - 0.0
14/12:00pm 19.5 - 7.3 45 6.6 - - - - - - - 0.0
14/11:50am 19.0 - 5.5 41 7.0 - - - - - - - 0.0
14/11:40am 18.6 - 5.0 40 7.0 - - - - - - - 0.0
14/11:30am 18.2 - 6.9 47 6.0 - - - - - - - 0.0
14/11:20am 17.6 - 6.0 46 6.0 - - - - - - - 0.0
14/11:10am 17.2 - 6.3 48 5.7 - - - - - - - 0.0
14/11:00am 16.9 - 6.5 50 5.4 - - - - - - - 0.0
14/10:50am 16.2 - 6.2 51 5.2 - - - - - - - 0.0
14/10:40am 15.7 - 5.9 52 5.0 - - - - - - - 0.0
14/10:30am 14.9 - 5.4 53 4.8 - - - - - - - 0.0
14/10:20am 14.4 - 5.6 55 4.4 - - - - - - - 0.0
14/10:10am 14.1 - 5.0 54 4.5 - - - - - - - 0.0
14/10:00am 13.4 - 4.7 55 4.3 - - - - - - - 0.0
14/09:50am 12.5 - 4.2 57 4.0 - - - - - - - 0.0
14/09:40am 12.1 - 4.6 60 3.6 - - - - - - - 0.0
14/09:30am 11.9 - 4.8 62 3.5 - - - - - - - 0.0
14/09:20am 11.7 - 4.4 61 3.5 - - - - - - - 0.0
14/09:10am 11.3 - 4.2 61 3.4 - - - - - - - 0.0
14/09:00am 10.6 - 4.2 64 3.0 - - - - - - - 0.0
14/08:50am 10.3 - 4.2 66 2.9 - - - - - - - 0.0
14/08:40am 9.9 - 4.4 68 2.6 - - - - - - - 0.0
14/08:30am 9.8 - 4.1 67 2.7 - - - - - - - 0.0
14/08:20am 9.8 - 3.8 66 2.8 - - - - - - - 0.0
14/08:10am 9.6 - 3.4 65 2.9 - - - - - - - 0.0
14/08:00am 9.5 - 3.9 68 2.6 - - - - - - - 0.0
14/07:50am 9.2 - 3.5 67 2.6 - - - - - - - 0.0
14/07:40am 9.0 - 3.5 68 2.5 - - - - - - - 0.0
14/07:30am 8.8 - 3.7 70 2.4 - - - - - - - 0.0
14/07:20am 8.6 - 3.4 70 2.4 - - - - - - - 0.0
14/07:10am 8.6 - 3.7 71 2.3 - - - - - - - 0.0
14/07:00am 8.4 - 3.2 70 2.4 - - - - - - - 0.0
14/06:50am 8.2 - 4.0 75 1.9 - - - - - - - 0.0
14/06:40am 8.0 - 3.8 75 1.9 - - - - - - - 0.0
14/06:30am 7.8 - 3.8 76 1.8 - - - - - - - 0.0
14/06:20am 7.6 - 3.8 77 1.7 - - - - - - - 0.0
14/06:10am 7.5 - 4.3 80 1.5 - - - - - - - 0.0
14/06:00am 7.3 - 4.3 81 1.4 - - - - - - - 0.0
14/05:50am 7.0 - 4.3 83 1.2 - - - - - - - 0.0
14/05:40am 6.8 - 4.5 85 1.1 - - - - - - - 0.0
14/05:30am 6.7 - 4.5 86 1.0 - - - - - - - 0.0
14/05:20am 6.6 - 4.6 87 0.9 - - - - - - - 0.0
14/05:10am 6.4 - 4.5 88 0.9 - - - - - - - 0.0
14/05:00am 6.2 - 4.4 88 0.8 - - - - - - - 0.0
14/04:50am 5.9 - 4.1 88 0.8 - - - - - - - 0.0
14/04:40am 5.6 - 3.9 89 0.8 - - - - - - - 0.0
14/04:30am 5.5 - 3.8 89 0.8 - - - - - - - 0.0
14/04:20am 5.5 - 3.7 88 0.8 - - - - - - - 0.0
14/04:10am 5.8 - 3.9 88 0.9 - - - - - - - 0.0
14/04:00am 5.8 - 3.9 88 0.9 - - - - - - - 0.0
14/03:50am 5.7 - 4.0 89 0.8 - - - - - - - 0.0
14/03:40am 5.7 - 3.9 88 0.8 - - - - - - - 0.0
14/03:30am 6.0 - 4.1 88 0.9 - - - - - - - 0.0
14/03:20am 6.1 - 4.3 88 0.8 - - - - - - - 0.0
14/03:10am 6.3 - 4.3 87 0.9 - - - - - - - 0.0
14/03:00am 6.3 - 4.3 87 0.9 - - - - - - - 0.0
14/02:50am 6.4 - 4.4 87 0.9 - - - - - - - 0.0
14/02:40am 6.5 - 4.4 86 1.0 - - - - - - - 0.0
14/02:30am 6.7 - 4.5 86 1.0 - - - - - - - 0.0
14/02:20am 6.8 - 4.6 86 1.0 - - - - - - - 0.0
14/02:10am 6.9 - 4.6 85 1.1 - - - - - - - 0.0
14/02:00am 7.1 - 4.6 84 1.2 - - - - - - - 0.0
14/01:50am 7.3 - 4.7 83 1.2 - - - - - - - 0.0
14/01:40am 7.5 - 4.7 82 1.3 - - - - - - - 0.0
14/01:30am 7.5 - 4.7 82 1.3 - - - - - - - 0.0
14/01:20am 7.7 - 4.7 81 1.4 - - - - - - - 0.0
14/01:10am 7.9 - 4.6 80 1.5 - - - - - - - 0.0
14/01:00am 8.1 - 4.6 78 1.6 - - - - - - - 0.0
14/12:50am 8.2 - 4.4 77 1.8 - - - - - - - 0.0
14/12:40am 8.5 - 4.3 75 2.0 - - - - - - - 0.0
14/12:30am 8.9 - 4.6 74 2.0 - - - - - - - 0.0
14/12:20am 9.1 - 4.7 74 2.1 - - - - - - - 0.0
14/12:10am 9.3 - 4.3 71 2.4 - - - - - - - 0.0
14/12:00am 9.3 - 4.5 72 2.3 - - - - - - - 0.0
 
Date/Time
EDT
Temp
°C
App
Temp
°C
Dew
Point
°C
Rel
Hum
%
Delta-T
°C
Wind Press
QNH
hPa
Press
MSL
hPa
Rain since
9am
mm
Dir  Spd
km/h
Gust
km/h
Spd
kts
Gust
kts
13/11:50pm 9.4 - 4.5 71 2.3 - - - - - - - 0.0
13/11:40pm 9.7 - 3.8 66 2.8 - - - - - - - 0.0
13/11:30pm 9.6 - 3.6 66 2.8 - - - - - - - 0.0
13/11:20pm 9.9 - 3.9 66 2.8 - - - - - - - 0.0
13/11:10pm 10.5 - 3.8 63 3.2 - - - - - - - 0.0
13/11:00pm 10.9 - 4.0 62 3.3 - - - - - - - 0.0
13/10:50pm 11.4 - 3.7 59 3.6 - - - - - - - 0.0
13/10:40pm 11.9 - 4.0 58 3.8 - - - - - - - 0.0
13/10:30pm 12.5 - 4.0 56 4.1 - - - - - - - 0.0
13/10:20pm 13.1 - 4.2 54 4.3 - - - - - - - 0.0
13/10:10pm 13.6 - 3.9 52 4.7 - - - - - - - 0.0
13/10:00pm 13.8 - 3.5 50 4.9 - - - - - - - 0.0
13/09:50pm 13.8 - 4.1 52 4.7 - - - - - - - 0.0
13/09:40pm 13.7 - 4.9 55 4.3 - - - - - - - 0.0
13/09:30pm 13.9 - 4.2 52 4.7 - - - - - - - 0.0
13/09:20pm 14.0 - 4.3 52 4.7 - - - - - - - 0.0
13/09:10pm 14.4 - 3.8 49 5.1 - - - - - - - 0.0
13/09:00pm 14.6 - 4.4 50 5.0 - - - - - - - 0.0
13/08:50pm 15.2 - 4.5 49 5.3 - - - - - - - 0.0
13/08:40pm 15.6 - 3.3 43 6.0 - - - - - - - 0.0
13/08:30pm 16.0 - 3.0 41 6.3 - - - - - - - 0.0
13/08:20pm 16.2 - 3.0 41 6.4 - - - - - - - 0.0
13/08:10pm 16.5 - 3.0 40 6.5 - - - - - - - 0.0
13/08:00pm 16.7 - 2.9 39 6.7 - - - - - - - 0.0
13/07:50pm 17.0 - 2.6 38 6.9 - - - - - - - 0.0
13/07:40pm 17.2 - 2.7 38 7.0 - - - - - - - 0.0
13/07:30pm 17.4 - 2.5 37 7.2 - - - - - - - 0.0
13/07:20pm 17.7 - 2.4 36 7.4 - - - - - - - 0.0
13/07:10pm 18.0 - 2.6 35 7.5 - - - - - - - 0.0
13/07:00pm 18.3 - 2.7 35 7.6 - - - - - - - 0.0
13/06:50pm 18.7 - 3.0 35 7.7 - - - - - - - 0.0
13/06:40pm 19.3 - 2.7 33 8.2 - - - - - - - 0.0
13/06:30pm 19.7 - 2.8 32 8.3 - - - - - - - 0.0
13/06:20pm 19.4 - 3.4 34 8.0 - - - - - - - 0.0
13/06:10pm 19.3 - 3.5 35 7.9 - - - - - - - 0.0
13/06:00pm 18.6 - 3.9 37 7.4 - - - - - - - 0.0
13/05:50pm 18.4 - 2.6 35 7.7 - - - - - - - 0.0
13/05:40pm 18.5 - 3.0 35 7.6 - - - - - - - 0.0
13/05:30pm 18.6 - 2.7 34 7.8 - - - - - - - 0.0
13/05:20pm 18.8 - 3.7 36 7.5 - - - - - - - 0.0
13/05:10pm 19.2 - 2.8 33 8.1 - - - - - - - 0.0
13/05:00pm 19.2 - 2.1 32 8.3 - - - - - - - 0.0
13/04:50pm 19.3 - 3.7 35 7.8 - - - - - - - 0.0
13/04:40pm 20.1 - 3.2 32 8.4 - - - - - - - 0.0
13/04:30pm 20.0 - 2.8 32 8.5 - - - - - - - 0.0
13/04:20pm 20.4 - 3.1 32 8.6 - - - - - - - 0.0
13/04:10pm 21.1 - 4.6 34 8.5 - - - - - - - 0.0
13/04:00pm 20.7 - 3.5 32 8.7 - - - - - - - 0.0
13/10:40am 15.6 - 5.4 50 5.2 - - - - - - - 0.0
13/10:30am 15.2 - 5.5 52 4.9 - - - - - - - 0.0
13/10:20am 14.6 - 4.7 51 4.9 - - - - - - - 0.0
13/10:10am 14.4 - 4.8 52 4.8 - - - - - - - 0.0
13/10:00am 14.1 - 4.8 53 4.6 - - - - - - - 0.0
13/09:50am 13.8 - 5.1 55 4.3 - - - - - - - 0.0
13/09:40am 13.3 - 4.8 56 4.2 - - - - - - - 0.0
13/09:30am 13.6 - 5.2 57 4.2 - - - - - - - 0.0
13/09:20am 13.0 - 5.0 58 3.9 - - - - - - - 0.0
13/09:10am 12.9 - 5.2 59 3.8 - - - - - - - 0.0
13/09:00am 13.0 - 5.1 58 3.9 - - - - - - - 0.0
13/08:50am 12.3 - 4.9 60 3.6 - - - - - - - 0.0
13/08:40am 11.9 - 5.3 64 3.2 - - - - - - - 0.0
13/08:30am 11.3 - 5.7 68 2.8 - - - - - - - 0.0
13/08:20am 10.8 - 5.6 70 2.6 - - - - - - - 0.0
13/08:10am 10.2 - 5.7 73 2.2 - - - - - - - 0.0
13/08:00am 9.6 - 5.4 75 2.0 - - - - - - - 0.0
13/07:50am 9.2 - 5.4 77 1.8 - - - - - - - 0.0
13/07:40am 9.2 - 5.2 76 1.9 - - - - - - - 0.0
13/07:30am 8.6 - 4.7 76 1.8 - - - - - - - 0.0
13/07:20am 7.2 - 4.1 81 1.4 - - - - - - - 0.0
13/07:10am 6.0 - 3.7 85 1.0 - - - - - - - 0.0
13/07:00am 5.0 - 3.1 87 0.8 - - - - - - - 0.0
13/06:50am 4.5 - 2.7 88 0.8 - - - - - - - 0.0
13/06:40am 4.7 - 2.8 87 0.8 - - - - - - - 0.0
13/06:30am 4.9 - 3.1 88 0.8 - - - - - - - 0.0
13/06:20am 5.1 - 3.1 87 0.9 - - - - - - - 0.0
13/06:10am 5.6 - 3.6 87 0.9 - - - - - - - 0.0
13/06:00am 6.0 - 3.9 86 1.0 - - - - - - - 0.0
13/05:50am 6.4 - 4.4 87 0.9 - - - - - - - 0.0
13/05:40am 6.6 - 4.3 85 1.1 - - - - - - - 0.0
13/05:30am 7.2 - 4.7 84 1.2 - - - - - - - 0.0
13/05:20am 7.7 - 4.9 82 1.3 - - - - - - - 0.0
13/05:10am 7.6 - 4.8 82 1.3 - - - - - - - 0.0
13/05:00am 7.3 - 4.5 82 1.3 - - - - - - - 0.0
13/04:50am 7.2 - 4.7 84 1.2 - - - - - - - 0.0
13/04:40am 7.0 - 4.4 83 1.2 - - - - - - - 0.0
13/04:30am 6.8 - 4.3 84 1.2 - - - - - - - 0.0
13/04:20am 6.9 - 4.2 83 1.2 - - - - - - - 0.0
13/04:10am 7.0 - 4.2 82 1.3 - - - - - - - 0.0
13/04:00am 7.3 - 4.3 81 1.4 - - - - - - - 0.0
13/03:50am 7.8 - 4.4 79 1.6 - - - - - - - 0.0
13/03:40am 8.2 - 4.7 78 1.7 - - - - - - - 0.0
13/03:30am 8.4 - 4.9 78 1.7 - - - - - - - 0.0
13/03:20am 8.7 - 4.9 77 1.8 - - - - - - - 0.0
13/03:10am 9.0 - 4.9 75 2.0 - - - - - - - 0.0
13/03:00am 9.2 - 5.0 75 2.0 - - - - - - - 0.0
13/02:50am 9.3 - 5.1 75 2.0 - - - - - - - 0.0
13/02:40am 9.4 - 5.2 75 2.0 - - - - - - - 0.0
13/02:30am 9.4 - 5.2 75 2.0 - - - - - - - 0.0
13/02:20am 9.4 - 5.2 75 2.0 - - - - - - - 0.0
13/02:10am 9.4 - 5.1 74 2.1 - - - - - - - 0.0
13/02:00am 9.5 - 5.2 74 2.1 - - - - - - - 0.0
13/01:50am 9.5 - 5.3 75 2.0 - - - - - - - 0.0
13/01:40am 9.6 - 5.2 74 2.1 - - - - - - - 0.0
13/01:30am 9.7 - 5.3 74 2.1 - - - - - - - 0.0
13/01:20am 9.7 - 5.6 75 2.0 - - - - - - - 0.0
13/01:10am 9.8 - 5.5 74 2.1 - - - - - - - 0.0
13/01:00am 9.8 - 5.6 75 2.0 - - - - - - - 0.0
13/12:50am 9.8 - 5.4 74 2.1 - - - - - - - 0.0
13/12:40am 9.8 - 5.2 73 2.2 - - - - - - - 0.0
13/12:30am 9.9 - 5.2 72 2.3 - - - - - - - 0.0
13/12:20am 9.9 - 5.3 73 2.2 - - - - - - - 0.0
13/12:10am 9.9 - 5.2 72 2.3 - - - - - - - 0.0
13/12:00am 9.9 - 5.2 72 2.3 - - - - - - - 0.0
 
Date/Time
EDT
Temp
°C
App
Temp
°C
Dew
Point
°C
Rel
Hum
%
Delta-T
°C
Wind Press
QNH
hPa
Press
MSL
hPa
Rain since
9am
mm
Dir  Spd
km/h
Gust
km/h
Spd
kts
Gust
kts
12/11:50pm 9.9 - 5.2 72 2.3 - - - - - - - 0.0
12/11:40pm 9.9 - 5.3 73 2.2 - - - - - - - 0.0
12/11:30pm 9.9 - 5.3 73 2.2 - - - - - - - 0.0
12/11:20pm 9.9 - 5.3 73 2.2 - - - - - - - 0.0
12/11:10pm 9.9 - 5.5 74 2.1 - - - - - - - 0.0
12/11:00pm 9.9 - 5.4 73 2.2 - - - - - - - 0.0
12/10:50pm 10.0 - 5.3 72 2.3 - - - - - - - 0.0
12/10:40pm 10.1 - 5.6 73 2.2 - - - - - - - 0.0
12/10:30pm 10.1 - 5.4 72 2.3 - - - - - - - 0.0
12/10:20pm 10.1 - 5.7 74 2.2 - - - - - - - 0.0
12/10:10pm 10.2 - 5.3 71 2.4 - - - - - - - 0.0
12/10:00pm 10.2 - 5.6 73 2.2 - - - - - - - 0.0
12/09:50pm 10.2 - 5.6 73 2.2 - - - - - - - 0.0
12/09:40pm 10.2 - 5.8 74 2.2 - - - - - - - 0.0
12/09:30pm 10.2 - 5.6 73 2.2 - - - - - - - 0.0
12/09:20pm 10.2 - 5.7 73 2.2 - - - - - - - 0.0
12/09:10pm 10.3 - 5.8 73 2.2 - - - - - - - 0.0
12/09:00pm 10.3 - 6.1 75 2.1 - - - - - - - 0.0
12/08:50pm 10.3 - 6.0 75 2.1 - - - - - - - 0.0
12/08:40pm 10.4 - 6.3 76 2.0 - - - - - - - 0.0
12/08:30pm 10.4 - 7.0 79 1.7 - - - - - - - 0.0
12/08:20pm 10.4 - 7.0 79 1.7 - - - - - - - 0.0
12/08:10pm 10.5 - 6.8 78 1.9 - - - - - - - 0.0
12/08:00pm 10.5 - 6.7 77 1.9 - - - - - - - 0.0
12/07:50pm 10.5 - 6.9 78 1.8 - - - - - - - 0.0
12/07:40pm 10.7 - 7.2 79 1.8 - - - - - - - 0.0
12/07:30pm 11.0 - 6.7 75 2.2 - - - - - - - 0.0
12/07:20pm 11.2 - 6.4 72 2.4 - - - - - - - 0.0
12/07:10pm 11.3 - 6.9 74 2.2 - - - - - - - 0.0
12/07:00pm 12.1 - 7.2 72 2.5 - - - - - - - 0.0
12/06:50pm 12.8 - 4.8 58 3.9 - - - - - - - 0.0
12/06:40pm 13.1 - 4.7 56 4.1 - - - - - - - 0.0
12/06:30pm 13.2 - 4.9 57 4.1 - - - - - - - 0.0
12/06:20pm 13.5 - 4.6 55 4.4 - - - - - - - 0.0
12/06:10pm 13.8 - 3.9 51 4.8 - - - - - - - 0.0
12/06:00pm 14.0 - 3.7 50 5.0 - - - - - - - 0.0
12/05:50pm 14.3 - 3.7 49 5.1 - - - - - - - 0.0
12/05:40pm 14.5 - 2.3 43 5.7 - - - - - - - 0.0
12/05:30pm 14.6 - 2.5 44 5.7 - - - - - - - 0.0
12/05:20pm 14.6 - 3.1 46 5.5 - - - - - - - 0.0
12/05:10pm 14.7 - 3.6 47 5.4 - - - - - - - 0.0
12/05:00pm 15.1 - 3.1 44 5.8 - - - - - - - 0.0
12/04:50pm 15.5 - 2.3 41 6.3 - - - - - - - 0.0
12/04:40pm 15.6 - 2.2 40 6.3 - - - - - - - 0.0
12/04:30pm 15.6 - 3.8 45 5.8 - - - - - - - 0.0
12/04:20pm 15.9 - 3.9 44 5.9 - - - - - - - 0.0
12/04:10pm 16.3 - 2.7 40 6.5 - - - - - - - 0.0
12/04:00pm 15.7 - 2.5 41 6.3 - - - - - - - 0.0
12/03:50pm 15.3 - 2.4 42 6.1 - - - - - - - 0.0
12/03:40pm 15.3 - 3.1 44 5.9 - - - - - - - 0.0
12/03:30pm 15.3 - 3.9 46 5.6 - - - - - - - 0.0
12/03:20pm 15.2 - 2.9 43 5.9 - - - - - - - 0.0
12/03:10pm 15.4 - 2.9 43 6.0 - - - - - - - 0.0
12/03:00pm 15.0 - 4.2 48 5.3 - - - - - - - 0.0
12/02:50pm 14.9 - 3.2 45 5.6 - - - - - - - 0.0
12/02:40pm 15.2 - 3.0 44 5.9 - - - - - - - 0.0
12/02:30pm 15.2 - 3.6 46 5.6 - - - - - - - 0.0
12/02:20pm 14.8 - 3.9 48 5.3 - - - - - - - 0.0
12/02:10pm 15.1 - 3.8 46 5.5 - - - - - - - 0.0
12/02:00pm 15.4 - 4.3 47 5.5 - - - - - - - 0.0
12/01:50pm 15.0 - 3.8 47 5.5 - - - - - - - 0.0
12/01:40pm 14.6 - 3.9 48 5.2 - - - - - - - 0.0
12/01:30pm 14.4 - 4.6 51 4.8 - - - - - - - 0.0
12/01:20pm 14.2 - 3.8 49 5.0 - - - - - - - 0.0
12/01:10pm 14.1 - 3.1 47 5.2 - - - - - - - 0.0
12/01:00pm 13.6 - 3.7 51 4.8 - - - - - - - 0.0
12/12:50pm 13.5 - 3.5 51 4.8 - - - - - - - 0.0
12/12:40pm 13.2 - 2.9 49 4.9 - - - - - - - 0.0
12/12:30pm 12.9 - 3.2 51 4.6 - - - - - - - 0.0
12/12:20pm 13.0 - 3.5 52 4.5 - - - - - - - 0.0
12/12:10pm 13.1 - 4.3 55 4.3 - - - - - - - 0.0
12/12:00pm 13.2 - 3.1 50 4.8 - - - - - - - 0.0
12/11:50am 13.2 - 3.4 51 4.7 - - - - - - - 0.0
12/11:40am 13.1 - 3.2 51 4.7 - - - - - - - 0.0
12/11:30am 12.9 - 3.1 51 4.6 - - - - - - - 0.0
12/11:20am 13.0 - 3.1 51 4.7 - - - - - - - 0.0
12/11:10am 12.9 - 3.7 53 4.4 - - - - - - - 0.0
12/11:00am 12.7 - 3.2 52 4.5 - - - - - - - 0.0
12/10:50am 12.6 - 3.5 54 4.3 - - - - - - - 0.0
12/10:40am 12.2 - 3.7 56 4.0 - - - - - - - 0.0
12/10:30am 12.6 - 3.3 53 4.4 - - - - - - - 0.0
12/10:20am 12.7 - 3.0 51 4.6 - - - - - - - 0.0
12/10:10am 12.5 - 3.2 53 4.4 - - - - - - - 0.0
12/10:00am 12.2 - 3.2 54 4.2 - - - - - - - 0.0
12/09:50am 11.9 - 2.8 53 4.2 - - - - - - - 0.0
12/09:40am 11.5 - 2.9 55 4.0 - - - - - - - 0.0
12/09:30am 11.3 - 3.1 57 3.8 - - - - - - - 0.0
12/09:20am 11.5 - 3.2 56 3.9 - - - - - - - 0.0
12/09:10am 11.1 - 2.9 57 3.8 - - - - - - - 0.0
12/09:00am 10.8 - 3.0 58 3.6 - - - - - - - 0.0
12/08:50am 10.5 - 2.7 58 3.6 - - - - - - - 0.0
12/08:40am 10.3 - 2.7 59 3.5 - - - - - - - 0.0
12/08:30am 10.1 - 2.9 61 3.3 - - - - - - - 0.0
12/08:20am 9.9 - 3.0 62 3.2 - - - - - - - 0.0
12/08:10am 9.9 - 3.2 63 3.1 - - - - - - - 0.0
12/08:00am 9.7 - 3.1 63 3.0 - - - - - - - 0.0
12/07:50am 9.4 - 3.3 65 2.8 - - - - - - - 0.0
12/07:40am 9.3 - 3.2 65 2.8 - - - - - - - 0.0
12/07:30am 9.1 - 3.2 66 2.7 - - - - - - - 0.0
12/07:20am 9.0 - 3.1 66 2.7 - - - - - - - 0.0
12/07:10am 8.9 - 3.3 68 2.6 - - - - - - - 0.0
12/07:00am 8.8 - 3.3 68 2.5 - - - - - - - 0.0
12/06:50am 8.7 - 3.3 69 2.5 - - - - - - - 0.0
12/06:40am 8.7 - 3.3 69 2.5 - - - - - - - 0.0
12/06:30am 8.7 - 3.2 68 2.5 - - - - - - - 0.0
12/06:20am 8.6 - 3.5 70 2.3 - - - - - - - 0.0
12/06:10am 8.6 - 3.7 71 2.3 - - - - - - - 0.0
12/06:00am 8.6 - 3.7 71 2.3 - - - - - - - 0.0
12/05:50am 8.6 - 3.8 72 2.2 - - - - - - - 0.0
12/05:40am 8.6 - 3.8 72 2.2 - - - - - - - 0.0
12/05:30am 8.8 - 3.9 71 2.3 - - - - - - - 0.0
12/05:20am 8.9 - 3.9 71 2.3 - - - - - - - 0.0
12/05:10am 9.0 - 4.0 71 2.3 - - - - - - - 0.0
12/05:00am 9.1 - 4.1 71 2.3 - - - - - - - 0.0
12/04:50am 9.2 - 4.0 70 2.4 - - - - - - - 0.0
12/04:40am 9.3 - 3.8 68 2.6 - - - - - - - 0.0
12/04:30am 9.4 - 4.1 69 2.5 - - - - - - - 0.0
12/04:20am 9.3 - 4.2 70 2.4 - - - - - - - 0.0
12/04:10am 9.3 - 4.1 70 2.4 - - - - - - - 0.0
12/04:00am 9.3 - 4.1 70 2.4 - - - - - - - 0.0
12/03:50am 9.4 - 4.1 69 2.5 - - - - - - - 0.0
12/03:40am 9.3 - 4.1 70 2.4 - - - - - - - 0.0
12/03:30am 9.3 - 4.1 70 2.4 - - - - - - - 0.0
12/03:20am 9.4 - 4.1 69 2.5 - - - - - - - 0.0
12/03:10am 9.4 - 4.1 69 2.5 - - - - - - - 0.0
12/03:00am 9.4 - 4.2 70 2.4 - - - - - - - 0.0
12/02:50am 9.4 - 4.2 70 2.4 - - - - - - - 0.0
12/02:40am 9.5 - 4.2 69 2.5 - - - - - - - 0.0
12/02:30am 9.6 - 4.4 70 2.5 - - - - - - - 0.0
12/02:20am 9.6 - 4.3 69 2.5 - - - - - - - 0.0
12/02:10am 9.6 - 4.4 70 2.5 - - - - - - - 0.0
12/02:00am 9.6 - 4.4 70 2.5 - - - - - - - 0.0
12/01:50am 9.7 - 4.5 70 2.5 - - - - - - - 0.0
12/01:40am 9.7 - 4.3 69 2.6 - - - - - - - 0.0
12/01:30am 9.6 - 4.4 70 2.5 - - - - - - - 0.0
12/01:20am 9.6 - 4.5 70 2.4 - - - - - - - 0.0
12/01:10am 9.6 - 4.4 70 2.5 - - - - - - - 0.0
12/01:00am 9.7 - 4.5 70 2.5 - - - - - - - 0.0
12/12:50am 9.7 - 4.5 70 2.5 - - - - - - - 0.0
12/12:40am 9.7 - 4.6 70 2.4 - - - - - - - 0.0
12/12:30am 9.7 - 4.6 70 2.4 - - - - - - - 0.0
12/12:20am 9.5 - 5.0 73 2.2 - - - - - - - 0.0
12/12:10am 9.5 - 5.3 75 2.0 - - - - - - - 0.0
12/12:00am 9.4 - 5.3 75 2.0 - - - - - - - 0.0
 
Date/Time
EDT
Temp
°C
App
Temp
°C
Dew
Point
°C
Rel
Hum
%
Delta-T
°C
Wind Press
QNH
hPa
Press
MSL
hPa
Rain since
9am
mm
Dir  Spd
km/h
Gust
km/h
Spd
kts
Gust
kts
11/11:50pm 9.3 - 5.7 78 1.8 - - - - - - - 0.0
11/11:40pm 9.7 - 5.4 74 2.1 - - - - - - - 0.0
11/11:30pm 9.9 - 5.2 72 2.3 - - - - - - - 0.0
11/11:20pm 10.0 - 5.2 72 2.3 - - - - - - - 0.0
11/11:10pm 10.0 - 4.8 70 2.5 - - - - - - - 0.0
11/11:00pm 10.1 - 4.8 69 2.5 - - - - - - - 0.0
11/10:50pm 10.3 - 4.9 69 2.6 - - - - - - - 0.0
11/10:40pm 10.3 - 5.0 69 2.6 - - - - - - - 0.0
11/10:30pm 10.4 - 5.0 69 2.6 - - - - - - - 0.0
11/10:20pm 10.5 - 5.0 69 2.7 - - - - - - - 0.0
11/10:10pm 10.5 - 4.9 68 2.7 - - - - - - - 0.0
11/10:00pm 10.5 - 4.8 68 2.7 - - - - - - - 0.0
11/09:50pm 10.4 - 4.7 68 2.7 - - - - - - - 0.0
11/09:40pm 10.4 - 4.6 67 2.8 - - - - - - - 0.0
11/09:30pm 10.5 - 4.6 67 2.8 - - - - - - - 0.0
11/09:20pm 10.5 - 4.5 66 2.9 - - - - - - - 0.0
11/09:10pm 10.5 - 4.5 66 2.9 - - - - - - - 0.0
11/09:00pm 10.5 - 4.6 67 2.8 - - - - - - - 0.0
11/08:50pm 10.5 - 4.5 66 2.9 - - - - - - - 0.0
11/08:40pm 10.5 - 4.5 66 2.9 - - - - - - - 0.0
11/08:30pm 10.6 - 4.5 66 2.9 - - - - - - - 0.0
11/08:20pm 10.7 - 4.4 65 3.0 - - - - - - - 0.0
11/08:10pm 10.8 - 4.5 65 3.0 - - - - - - - 0.0
11/08:00pm 11.0 - 4.5 64 3.1 - - - - - - - 0.0
11/07:50pm 11.3 - 4.4 62 3.3 - - - - - - - 0.0
11/07:40pm 11.5 - 4.7 63 3.3 - - - - - - - 0.0
11/07:30pm 11.8 - 4.9 62 3.4 - - - - - - - 0.0
11/07:20pm 12.0 - 4.5 60 3.6 - - - - - - - 0.0
11/07:10pm 12.2 - 4.2 58 3.8 - - - - - - - 0.0
11/07:00pm 12.4 - 4.3 57 3.9 - - - - - - - 0.0
11/06:50pm 12.7 - 4.1 56 4.1 - - - - - - - 0.0
11/06:40pm 13.0 - 4.2 55 4.3 - - - - - - - 0.0
11/06:30pm 13.3 - 4.3 54 4.4 - - - - - - - 0.0
11/06:20pm 14.0 - 4.5 52 4.7 - - - - - - - 0.0
11/06:10pm 14.7 - 4.4 50 5.1 - - - - - - - 0.0
11/06:00pm 14.9 - 3.9 47 5.4 - - - - - - - 0.0
11/05:50pm 14.5 - 3.4 47 5.3 - - - - - - - 0.0
11/05:40pm 14.3 - 2.7 45 5.5 - - - - - - - 0.0
11/05:30pm 14.4 - 3.6 48 5.2 - - - - - - - 0.0
11/05:20pm 14.6 - 3.1 46 5.5 - - - - - - - 0.0
11/05:10pm 14.6 - 3.0 45 5.5 - - - - - - - 0.0
11/05:00pm 14.7 - 3.7 47 5.3 - - - - - - - 0.0

Other formats

Comma delimited format used in spreadsheet applications
http://www.bom.gov.au/fwo/IDN60801/IDN60801.99146.axf

JavaScript Object Notation format (JSON) in row-major order
http://www.bom.gov.au/fwo/IDN60801/IDN60801.99146.json

Data quality

Most of these data are generated automatically and are frequently updated. Quality checks on data are not normally performed. It is possible for incorrect values to appear. Refer to information at About Latest Weather Observations and please check the disclaimer before using these data.